createdAt,value
2018-08-31T00:05:54.666Z,8.23
2018-08-31T00:10:46.871Z,9.37
2018-08-31T00:13:16.731Z,9.00
2018-08-31T00:15:46.573Z,9.90
2018-08-31T00:18:16.511Z,9.53
2018-08-31T00:20:46.319Z,9.83
2018-08-31T00:23:16.097Z,8.57
2018-08-31T00:26:15.821Z,9.13
2018-08-31T00:29:41.261Z,9.50
2018-08-31T00:32:27.982Z,9.47
2018-08-31T00:37:16.548Z,9.77
2018-08-31T00:42:15.401Z,10.03
2018-08-31T00:45:32.353Z,9.97
2018-08-31T00:48:02.757Z,9.93
2018-08-31T00:50:33.129Z,10.07
2018-08-31T00:53:03.546Z,9.03
2018-08-31T00:55:33.785Z,9.47
2018-08-31T00:58:03.639Z,9.53
2018-08-31T01:00:33.503Z,9.73
2018-08-31T01:06:39.364Z,10.40
2018-08-31T01:09:09.391Z,10.40
2018-08-31T01:11:39.299Z,11.50
2018-08-31T01:14:09.164Z,10.43
2018-08-31T01:16:38.986Z,11.00
2018-08-31T01:19:08.954Z,11.13
2018-08-31T01:21:38.720Z,10.83
2018-08-31T01:24:08.897Z,10.83
2018-08-31T01:28:08.120Z,10.50
2018-08-31T01:30:38.141Z,11.07
2018-08-31T01:33:08.317Z,11.17
2018-08-31T01:35:38.142Z,10.57
2018-08-31T01:38:07.976Z,11.17
2018-08-31T01:40:37.806Z,10.80
2018-08-31T01:43:07.640Z,10.97
2018-08-31T01:45:38.056Z,11.90
2018-08-31T01:48:07.888Z,12.20
2018-08-31T01:50:41.786Z,11.57
2018-08-31T01:53:11.758Z,11.77
2018-08-31T01:55:41.620Z,11.70
2018-08-31T01:58:11.488Z,10.57
2018-08-31T02:00:41.294Z,10.77
2018-08-31T02:03:11.181Z,11.10
2018-08-31T02:05:41.016Z,10.97
2018-08-31T02:08:10.779Z,11.23
2018-08-31T02:10:40.624Z,11.53
2018-08-31T02:13:10.433Z,12.13
2018-08-31T02:15:40.518Z,11.63
2018-08-31T02:18:10.813Z,12.67
2018-08-31T02:20:40.664Z,11.87
2018-08-31T02:23:10.483Z,11.43
2018-08-31T02:25:40.277Z,12.07
2018-08-31T02:28:10.162Z,12.30
2018-08-31T02:30:40.291Z,12.80
2018-08-31T02:33:10.068Z,12.10
2018-08-31T02:35:40.177Z,12.27
2018-08-31T02:38:10.051Z,12.37
2018-08-31T02:40:39.875Z,11.97
2018-08-31T02:43:10.569Z,12.23
2018-08-31T02:45:40.361Z,12.17
2018-08-31T02:48:10.193Z,12.77
2018-08-31T02:50:40.455Z,12.57
2018-08-31T02:53:10.283Z,11.67
2018-08-31T02:55:40.585Z,11.87
2018-08-31T02:58:10.405Z,11.20
2018-08-31T03:00:40.243Z,11.00
2018-08-31T03:03:10.103Z,12.23
2018-08-31T03:05:39.971Z,12.87
2018-08-31T03:08:10.135Z,13.13
2018-08-31T03:10:39.999Z,12.23
2018-08-31T03:13:09.811Z,12.63
2018-08-31T03:15:40.013Z,14.80
2018-08-31T03:18:09.889Z,13.90
2018-08-31T03:20:39.910Z,13.27
2018-08-31T03:23:09.790Z,13.70
2018-08-31T03:25:39.598Z,14.40
2018-08-31T03:28:09.468Z,14.50
2018-08-31T03:30:39.428Z,14.10
2018-08-31T03:33:09.302Z,14.77
2018-08-31T03:35:39.187Z,13.30
2018-08-31T03:38:09.051Z,12.80
2018-08-31T03:40:38.879Z,12.13
2018-08-31T03:43:09.234Z,11.70
2018-08-31T03:45:39.051Z,12.97
2018-08-31T03:48:08.930Z,13.73
2018-08-31T03:50:38.731Z,12.60
2018-08-31T03:53:08.611Z,13.47
2018-08-31T03:55:38.636Z,13.30
2018-08-31T03:58:08.492Z,13.67
2018-08-31T04:00:38.648Z,14.30
2018-08-31T04:03:08.569Z,14.37
2018-08-31T04:05:38.432Z,15.13
2018-08-31T04:08:09.356Z,13.97
2018-08-31T04:10:39.254Z,14.13
2018-08-31T04:13:09.081Z,14.47
2018-08-31T04:15:38.936Z,15.67
2018-08-31T04:18:08.766Z,16.50
2018-08-31T04:20:38.722Z,17.20
2018-08-31T04:23:08.617Z,17.43
2018-08-31T04:25:38.404Z,16.30
2018-08-31T04:28:08.224Z,18.20
2018-08-31T04:30:38.096Z,17.70
2018-08-31T04:33:08.370Z,18.70
2018-08-31T04:35:38.267Z,20.23
2018-08-31T04:38:08.178Z,19.67
2018-08-31T04:40:38.061Z,19.70
2018-08-31T04:43:08.002Z,19.97
2018-08-31T04:45:38.007Z,20.00
2018-08-31T04:48:08.071Z,19.47
2018-08-31T04:50:37.893Z,18.63
2018-08-31T04:53:08.019Z,19.17
2018-08-31T04:55:37.868Z,20.17
2018-08-31T04:58:07.889Z,20.43
2018-08-31T05:00:38.085Z,22.67
2018-08-31T05:03:07.951Z,22.30
2018-08-31T05:05:37.761Z,21.20
2018-08-31T05:08:08.046Z,22.13
2018-08-31T05:10:38.049Z,21.93
2018-08-31T05:13:07.911Z,24.37
2018-08-31T05:15:37.712Z,23.10
2018-08-31T05:18:07.588Z,21.70
2018-08-31T05:20:37.525Z,23.50
2018-08-31T05:23:07.690Z,23.63
2018-08-31T05:25:37.659Z,21.87
2018-08-31T05:28:07.829Z,23.50
2018-08-31T05:30:37.631Z,21.20
2018-08-31T05:33:08.280Z,21.20
2018-08-31T05:35:38.155Z,19.50
2018-08-31T05:38:08.361Z,21.03
2018-08-31T05:40:38.131Z,21.63
2018-08-31T05:43:07.971Z,20.43
2018-08-31T05:45:37.864Z,20.87
2018-08-31T05:48:07.785Z,20.73
2018-08-31T05:50:37.637Z,21.87
2018-08-31T05:53:07.566Z,22.17
2018-08-31T05:55:37.405Z,21.57
2018-08-31T05:58:07.298Z,22.03
2018-08-31T06:00:37.821Z,21.73
2018-08-31T06:03:08.395Z,22.17
2018-08-31T06:05:38.268Z,21.33
2018-08-31T06:08:08.112Z,20.10
2018-08-31T06:10:37.921Z,19.53
2018-08-31T06:13:07.854Z,20.40
2018-08-31T06:15:37.684Z,19.17
2018-08-31T06:18:08.899Z,20.30
2018-08-31T06:20:38.903Z,20.47
2018-08-31T06:23:08.778Z,20.27
2018-08-31T06:25:38.788Z,19.50
2018-08-31T06:28:08.716Z,18.47
2018-08-31T06:30:38.784Z,19.00
2018-08-31T06:33:08.957Z,18.70
2018-08-31T06:35:38.906Z,18.93
2018-08-31T06:38:09.001Z,20.43
2018-08-31T06:40:39.663Z,19.37
2018-08-31T06:43:10.922Z,19.53
2018-08-31T06:45:40.980Z,19.00
2018-08-31T06:48:10.838Z,20.10
2018-08-31T06:50:40.724Z,20.80
2018-08-31T06:53:10.650Z,20.43
2018-08-31T06:55:40.708Z,21.87
2018-08-31T06:58:10.636Z,21.00
2018-08-31T07:00:40.502Z,21.33
2018-08-31T07:03:10.466Z,20.73
2018-08-31T07:05:40.451Z,21.73
2018-08-31T07:08:10.803Z,21.90
2018-08-31T07:10:40.972Z,21.27
2018-08-31T07:13:10.875Z,21.93
2018-08-31T07:15:40.654Z,22.60
2018-08-31T07:18:10.574Z,23.20
2018-08-31T07:20:41.438Z,22.10
2018-08-31T07:23:11.300Z,22.10
2018-08-31T07:25:41.160Z,22.00
2018-08-31T07:28:11.019Z,22.77
2018-08-31T07:30:40.984Z,22.73
2018-08-31T07:33:10.808Z,22.40
2018-08-31T07:35:41.520Z,21.07
2018-08-31T07:38:11.482Z,22.80
2018-08-31T07:40:41.375Z,22.47
2018-08-31T07:43:11.187Z,22.57
2018-08-31T07:45:41.834Z,24.10
2018-08-31T07:48:11.740Z,22.37
2018-08-31T07:50:41.514Z,23.17
2018-08-31T07:53:11.347Z,22.47
2018-08-31T07:55:41.213Z,22.87
2018-08-31T07:58:11.148Z,22.83
2018-08-31T08:00:41.101Z,23.07
2018-08-31T08:03:11.058Z,22.37
2018-08-31T08:05:41.067Z,22.13
2018-08-31T08:08:11.656Z,22.93
2018-08-31T08:10:41.990Z,21.57
2018-08-31T08:13:12.003Z,20.53
2018-08-31T08:15:41.808Z,21.13
2018-08-31T08:18:11.603Z,20.57
2018-08-31T08:20:41.503Z,20.67
2018-08-31T08:23:11.362Z,20.00
2018-08-31T08:25:41.218Z,19.83
2018-08-31T08:28:11.482Z,20.53
2018-08-31T08:30:41.503Z,21.97
2018-08-31T08:33:11.555Z,21.90
2018-08-31T08:35:41.584Z,21.50
2018-08-31T08:38:11.468Z,20.70
2018-08-31T08:40:41.711Z,19.27
2018-08-31T08:43:11.559Z,19.47
2018-08-31T08:45:41.495Z,21.33
2018-08-31T08:48:11.392Z,20.47
2018-08-31T08:50:41.607Z,21.33
2018-08-31T08:53:11.469Z,20.33
2018-08-31T08:55:41.386Z,19.77
2018-08-31T08:58:11.379Z,19.73
2018-08-31T09:00:42.141Z,19.73
2018-08-31T09:03:12.336Z,19.53
2018-08-31T09:05:42.539Z,19.60
2018-08-31T09:08:12.509Z,20.27
2018-08-31T09:10:42.477Z,19.43
2018-08-31T09:13:12.509Z,20.93
2018-08-31T09:15:42.357Z,20.90
2018-08-31T09:18:12.253Z,22.83
2018-08-31T09:20:42.075Z,20.57
2018-08-31T09:23:11.835Z,22.40
2018-08-31T09:25:41.933Z,22.10
2018-08-31T09:28:12.436Z,23.37
2018-08-31T09:30:43.565Z,22.53
2018-08-31T09:33:13.569Z,23.17
2018-08-31T09:35:43.541Z,21.73
2018-08-31T09:38:13.834Z,22.00
2018-08-31T09:40:43.877Z,22.73
2018-08-31T09:43:13.801Z,22.43
2018-08-31T09:45:43.647Z,24.10
2018-08-31T09:48:13.625Z,22.50
2018-08-31T09:50:43.569Z,22.60
2018-08-31T09:53:13.363Z,23.70
2018-08-31T09:55:43.211Z,22.73
2018-08-31T09:58:13.567Z,23.27
2018-08-31T10:00:48.477Z,22.20
2018-08-31T10:03:22.658Z,22.33
2018-08-31T10:05:53.367Z,20.73
2018-08-31T10:08:24.857Z,21.43
2018-08-31T10:14:30.545Z,22.00
2018-08-31T10:17:01.007Z,22.37
2018-08-31T10:19:30.889Z,22.33
2018-08-31T10:22:00.811Z,21.07
2018-08-31T10:24:30.717Z,23.10
2018-08-31T10:27:00.671Z,21.77
2018-08-31T10:29:30.613Z,22.60
2018-08-31T10:32:00.420Z,24.10
2018-08-31T10:34:30.345Z,23.57
2018-08-31T10:37:00.223Z,24.90
2018-08-31T10:43:06.035Z,25.03
2018-08-31T10:45:36.541Z,24.63
2018-08-31T10:48:06.475Z,26.00
2018-08-31T10:50:36.279Z,24.67
2018-08-31T10:53:06.607Z,24.57
2018-08-31T10:55:36.558Z,24.67
2018-08-31T10:58:06.739Z,25.57
2018-08-31T11:00:36.585Z,25.10
2018-08-31T11:03:06.729Z,25.43
2018-08-31T11:05:36.634Z,24.97
2018-08-31T11:08:09.561Z,23.53
2018-08-31T11:10:39.411Z,23.73
2018-08-31T11:13:10.060Z,23.20
2018-08-31T11:15:40.111Z,23.33
2018-08-31T11:18:10.037Z,23.40
2018-08-31T11:20:39.934Z,22.23
2018-08-31T11:23:09.746Z,21.90
2018-08-31T11:25:39.665Z,22.07
2018-08-31T11:28:09.779Z,23.47
2018-08-31T11:30:39.636Z,22.93
2018-08-31T11:33:09.737Z,22.13
2018-08-31T11:35:39.600Z,23.00
2018-08-31T11:38:09.571Z,22.83
2018-08-31T11:40:40.020Z,22.90
2018-08-31T11:43:10.602Z,24.20
2018-08-31T11:45:40.511Z,23.90
2018-08-31T11:48:10.480Z,23.67
2018-08-31T11:50:40.302Z,23.70
2018-08-31T11:53:10.138Z,22.90
2018-08-31T11:55:39.998Z,22.77
2018-08-31T11:58:10.152Z,22.97
2018-08-31T12:00:40.020Z,22.17
2018-08-31T12:03:10.714Z,23.63
2018-08-31T12:05:40.832Z,21.60
2018-08-31T12:08:10.710Z,22.03
2018-08-31T12:10:41.436Z,22.70
2018-08-31T12:13:11.340Z,20.50
2018-08-31T12:15:41.178Z,22.70
2018-08-31T12:18:11.046Z,23.00
2018-08-31T12:20:41.746Z,22.30
2018-08-31T12:23:11.760Z,21.70
2018-08-31T12:25:41.665Z,23.03
2018-08-31T12:28:11.582Z,21.83
2018-08-31T12:30:41.470Z,22.57
2018-08-31T12:33:11.288Z,21.83
2018-08-31T12:35:41.382Z,21.07
2018-08-31T12:38:12.496Z,21.57
2018-08-31T12:40:42.594Z,20.90
2018-08-31T12:43:12.414Z,20.87
2018-08-31T12:45:42.220Z,21.93
2018-08-31T12:48:12.058Z,21.93
2018-08-31T12:50:41.994Z,20.80
2018-08-31T12:53:11.947Z,21.97
2018-08-31T12:55:41.822Z,22.77
2018-08-31T12:58:11.622Z,21.30
2018-08-31T13:00:42.265Z,20.87
2018-08-31T13:03:12.148Z,22.30
2018-08-31T13:05:41.962Z,22.03
2018-08-31T13:08:11.945Z,21.43
2018-08-31T13:10:41.931Z,21.30
2018-08-31T13:13:11.897Z,21.03
2018-08-31T13:15:41.723Z,21.33
2018-08-31T13:18:11.668Z,20.77
2018-08-31T13:20:41.615Z,21.97
2018-08-31T13:23:11.534Z,21.77
2018-08-31T13:25:41.489Z,22.27
2018-08-31T13:28:11.437Z,21.50
2018-08-31T13:30:42.001Z,20.33
2018-08-31T13:33:11.849Z,20.57
2018-08-31T13:35:41.682Z,22.10
2018-08-31T13:38:58.703Z,22.27
2018-08-31T13:41:28.503Z,20.37
2018-08-31T13:43:58.322Z,22.40
2018-08-31T13:46:28.253Z,21.57
2018-08-31T13:48:58.422Z,16.80
2018-08-31T13:51:28.901Z,17.60
2018-08-31T13:53:58.706Z,18.17
2018-08-31T13:56:28.534Z,19.07
2018-08-31T13:58:58.337Z,18.53
2018-08-31T14:01:28.160Z,18.57
2018-08-31T14:03:58.279Z,19.20
2018-08-31T14:06:29.365Z,20.00
2018-08-31T14:08:59.698Z,18.90
2018-08-31T14:11:29.928Z,18.20
2018-08-31T14:13:59.931Z,19.23
2018-08-31T14:16:29.905Z,18.60
2018-08-31T14:19:00.325Z,18.07
2018-08-31T14:21:30.371Z,16.73
2018-08-31T14:24:00.277Z,15.97
2018-08-31T14:33:42.905Z,12.30
2018-08-31T14:36:12.975Z,11.60
2018-08-31T14:38:43.723Z,11.73
2018-08-31T14:41:13.697Z,10.20
2018-08-31T14:43:43.605Z,10.43
2018-08-31T14:46:13.539Z,9.40
2018-08-31T14:48:43.797Z,8.90
2018-08-31T14:51:14.283Z,8.17
2018-08-31T14:53:44.346Z,7.63
2018-08-31T14:56:14.553Z,7.27
2018-08-31T14:58:44.591Z,5.87
2018-08-31T15:01:14.691Z,6.17
2018-08-31T15:03:44.708Z,4.87
2018-08-31T15:06:14.610Z,5.33
2018-08-31T15:08:45.659Z,6.20
2018-08-31T15:11:15.700Z,6.33
2018-08-31T15:13:45.715Z,5.93
2018-08-31T15:16:16.219Z,5.27
2018-08-31T15:18:46.625Z,5.27
2018-08-31T15:21:16.703Z,4.47
2018-08-31T15:23:47.532Z,4.60
2018-08-31T15:26:17.515Z,3.20
2018-08-31T15:28:47.414Z,3.57
2018-08-31T15:31:18.428Z,3.33
2018-08-31T15:33:49.541Z,3.13
2018-08-31T15:36:19.785Z,3.33
2018-08-31T15:38:49.849Z,3.63
2018-08-31T15:41:19.772Z,2.90
2018-08-31T15:43:50.399Z,3.43
2018-08-31T15:46:20.453Z,3.20
2018-08-31T15:48:50.379Z,3.23
2018-08-31T15:51:20.281Z,2.70
2018-08-31T15:53:50.202Z,2.90
2018-08-31T15:56:20.186Z,2.73
2018-08-31T15:58:50.112Z,3.10
2018-08-31T16:01:20.148Z,2.83
2018-08-31T16:03:50.008Z,3.20
2018-08-31T16:06:20.038Z,2.50
2018-08-31T16:08:49.944Z,3.00
2018-08-31T16:11:20.193Z,2.77
2018-08-31T16:13:50.016Z,2.67
2018-08-31T16:16:20.056Z,2.53
2018-08-31T16:18:49.979Z,2.50
2018-08-31T16:21:20.112Z,2.60
2018-08-31T16:23:50.726Z,2.30
2018-08-31T16:26:21.375Z,2.30
2018-08-31T16:28:51.517Z,2.60
2018-08-31T16:31:21.514Z,2.37
2018-08-31T16:33:51.384Z,2.07
2018-08-31T16:36:21.770Z,2.50
2018-08-31T16:38:51.680Z,2.73
2018-08-31T16:41:24.158Z,1.97
2018-08-31T16:43:54.293Z,2.20
2018-08-31T16:46:24.340Z,2.23
2018-08-31T16:48:54.275Z,1.83
2018-08-31T16:51:24.466Z,2.20
2018-08-31T16:53:54.902Z,2.10
2018-08-31T16:56:25.002Z,1.80
2018-08-31T16:58:55.120Z,1.90
2018-08-31T17:01:25.842Z,2.60
2018-08-31T17:03:56.216Z,2.60
2018-08-31T17:06:27.048Z,2.63
2018-08-31T17:08:56.921Z,2.17
2018-08-31T17:11:27.242Z,2.37
2018-08-31T17:13:57.067Z,2.53
2018-08-31T17:16:27.026Z,2.10
2018-08-31T17:18:56.879Z,2.13
2018-08-31T17:21:27.254Z,2.57
2018-08-31T17:23:57.184Z,2.30
2018-08-31T17:26:33.241Z,2.40
2018-08-31T17:29:08.301Z,2.20
2018-08-31T17:31:43.210Z,2.87
2018-08-31T17:34:18.794Z,2.97
2018-08-31T17:36:54.134Z,2.53
2018-08-31T17:39:24.876Z,2.70
2018-08-31T17:41:55.398Z,3.20
2018-08-31T17:44:25.974Z,3.43
2018-08-31T17:46:55.952Z,3.73
2018-08-31T17:49:26.626Z,4.20
2018-08-31T17:51:56.522Z,4.07
2018-08-31T17:54:26.804Z,4.57
2018-08-31T17:56:56.630Z,4.37
2018-08-31T17:59:26.506Z,4.20
2018-08-31T18:01:56.428Z,4.10
2018-08-31T18:04:26.410Z,4.70
2018-08-31T18:06:56.290Z,4.73
2018-08-31T18:09:26.508Z,4.27
2018-08-31T18:11:56.734Z,4.67
2018-08-31T18:14:26.526Z,4.50
2018-08-31T18:17:57.218Z,4.70
2018-08-31T18:20:27.130Z,4.77
2018-08-31T18:22:56.886Z,5.13
2018-08-31T18:25:26.766Z,4.97
2018-08-31T18:27:56.635Z,5.73
2018-08-31T18:30:26.647Z,5.40
2018-08-31T18:32:56.444Z,5.93
2018-08-31T18:35:26.621Z,5.63
2018-08-31T18:37:56.756Z,6.03
2018-08-31T18:40:26.562Z,5.93
2018-08-31T18:42:57.373Z,5.73
2018-08-31T18:45:27.224Z,6.00
2018-08-31T18:47:57.829Z,6.10
2018-08-31T18:50:27.892Z,6.33
2018-08-31T18:52:57.724Z,6.20
2018-08-31T18:55:27.960Z,6.40
2018-08-31T18:57:57.815Z,7.03
2018-08-31T19:00:27.861Z,7.17
2018-08-31T19:02:57.805Z,6.57
2018-08-31T19:05:27.984Z,6.40
2018-08-31T19:07:58.627Z,6.53
2018-08-31T19:10:28.573Z,6.43
2018-08-31T19:12:58.554Z,6.63
2018-08-31T19:15:28.669Z,5.73
2018-08-31T19:17:58.709Z,6.30
2018-08-31T19:20:28.539Z,5.57
2018-08-31T19:22:58.435Z,4.87
2018-08-31T19:25:28.710Z,5.53
2018-08-31T19:27:58.682Z,5.80
2018-08-31T19:30:28.579Z,5.77
2018-08-31T19:32:58.493Z,5.33
2018-08-31T19:35:28.359Z,5.00
2018-08-31T19:37:58.238Z,4.47
2018-08-31T19:40:28.201Z,4.53
2018-08-31T19:42:57.997Z,4.50
2018-08-31T19:45:28.323Z,5.03
2018-08-31T19:47:58.309Z,5.27
2018-08-31T19:50:28.723Z,4.73
2018-08-31T19:52:58.878Z,4.57
2018-08-31T19:55:28.762Z,5.20
2018-08-31T19:57:59.465Z,6.13
2018-08-31T20:00:29.223Z,6.63
2018-08-31T20:02:59.827Z,6.90
2018-08-31T20:05:29.645Z,9.03
2018-08-31T20:07:59.497Z,10.03
2018-08-31T20:10:29.462Z,8.83
2018-08-31T20:12:59.346Z,10.30
2018-08-31T20:15:29.335Z,9.20
2018-08-31T20:17:59.117Z,10.53
2018-08-31T20:20:29.014Z,11.00
2018-08-31T20:22:59.107Z,11.27
2018-08-31T20:25:29.069Z,11.73
2018-08-31T20:27:59.533Z,12.93
2018-08-31T20:30:29.424Z,12.10
2018-08-31T20:32:59.335Z,12.47
2018-08-31T20:35:29.209Z,12.30
2018-08-31T20:37:59.251Z,12.03
2018-08-31T20:40:29.504Z,12.50
2018-08-31T20:42:59.319Z,12.13
2018-08-31T20:45:29.249Z,11.50
2018-08-31T20:47:59.145Z,11.93
2018-08-31T20:50:29.015Z,12.47
2018-08-31T20:52:58.863Z,12.53
2018-08-31T20:55:28.929Z,11.63
2018-08-31T20:57:58.951Z,11.23
2018-08-31T21:00:28.990Z,11.00
2018-08-31T21:02:59.369Z,10.83
2018-08-31T21:05:29.145Z,10.83
2018-08-31T21:07:59.161Z,10.93
2018-08-31T21:10:29.020Z,11.63
2018-08-31T21:12:58.842Z,11.03
2018-08-31T21:15:28.722Z,12.03
2018-08-31T21:17:58.620Z,11.20
2018-08-31T21:20:28.521Z,11.60
2018-08-31T21:22:58.424Z,11.07
2018-08-31T21:25:28.372Z,12.77
2018-08-31T21:27:58.376Z,13.60
2018-08-31T21:30:28.780Z,13.57
2018-08-31T21:32:58.747Z,14.37
2018-08-31T21:35:28.573Z,13.27
2018-08-31T21:37:58.409Z,11.63
2018-08-31T21:40:28.489Z,12.70
2018-08-31T21:42:58.352Z,12.60
2018-08-31T21:45:28.147Z,10.93
2018-08-31T21:47:58.098Z,10.57
2018-08-31T21:50:27.956Z,9.87
2018-08-31T21:52:57.758Z,10.33
2018-08-31T21:55:27.686Z,10.87
2018-08-31T21:57:57.789Z,11.83
2018-08-31T22:00:27.784Z,12.00
2018-08-31T22:02:57.583Z,12.90
2018-08-31T22:05:27.657Z,13.13
2018-08-31T22:07:57.483Z,12.73
2018-08-31T22:10:27.416Z,13.20
2018-08-31T22:12:57.767Z,13.60
2018-08-31T22:15:28.323Z,13.23
2018-08-31T22:17:58.177Z,13.80
2018-08-31T22:20:28.092Z,13.37
2018-08-31T22:22:58.274Z,14.00
2018-08-31T22:25:28.528Z,13.53
2018-08-31T22:27:58.627Z,14.53
2018-08-31T22:30:30.248Z,14.53
2018-08-31T22:33:00.336Z,14.90
2018-08-31T22:35:30.306Z,14.50
2018-08-31T22:38:00.146Z,14.77
2018-08-31T22:40:30.376Z,14.33
2018-08-31T22:43:00.664Z,14.00
2018-08-31T22:45:30.533Z,15.30
2018-08-31T22:48:00.408Z,14.53
2018-08-31T22:50:30.455Z,14.50
2018-08-31T22:53:00.306Z,14.77
2018-08-31T22:55:30.131Z,15.70
2018-08-31T22:58:00.273Z,17.60
2018-08-31T23:00:31.412Z,17.63
2018-08-31T23:03:01.279Z,17.73
2018-08-31T23:05:31.084Z,17.67
2018-08-31T23:08:01.906Z,18.93
2018-08-31T23:10:32.683Z,17.53
2018-08-31T23:13:03.063Z,17.40
2018-08-31T23:15:33.117Z,18.93
2018-08-31T23:18:02.955Z,17.60
2018-08-31T23:20:32.794Z,16.63
2018-08-31T23:23:07.674Z,16.83
2018-08-31T23:25:42.668Z,16.83
2018-08-31T23:28:13.208Z,17.00
2018-08-31T23:30:43.048Z,17.20
2018-08-31T23:33:13.242Z,17.87
2018-08-31T23:35:43.172Z,15.57
2018-08-31T23:38:13.118Z,16.13
2018-08-31T23:40:43.283Z,16.10
2018-08-31T23:43:13.226Z,16.17
2018-08-31T23:45:43.153Z,15.73
2018-08-31T23:48:12.938Z,17.77
2018-08-31T23:50:43.190Z,15.60
2018-08-31T23:53:13.112Z,15.80
2018-08-31T23:55:42.996Z,16.20
2018-08-31T23:58:13.040Z,15.93
